KABQ/ABQ METAR and TAF weather

Enter ICAO airport designator
Station Type Date Time Source
KABQ METAR 2018/12/10 23:52 UTC NOAA

KABQ 102352Z 28003KT 10SM SCT250 07/M09 A3028 RMK AO2 SLP260 T00671094 10083 20028 56014


Station Type Date Time Source
KABQ Decoded METAR 2018/12/10 23:52 UTC NOAA

ALBUQUERQUE INTERNATIONAL AIRPORT, NM, United States (KABQ) 35-02N 106-36W 1618M
Dec 10, 2018 - 06:52 PM EST / 2018.12.10 2352 UTC
Wind: from the W (280 degrees) at 3 MPH (3 KT):0
Visibility: 10 mile(s):0
Sky conditions: partly cloudy
Temperature: 44.1 F (6.7 C)
Dew Point: 15.1 F (-9.4 C)
Relative Humidity: 30%
Pressure (altimeter): 30.28 in. Hg (1025 hPa)
Pressure tendency: 0.04 inches (1.4 hPa) lower than three hours ago
ob: KABQ 102352Z 28003KT 10SM SCT250 07/M09 A3028 RMK AO2 SLP260 T00671094 10083 20028 56014
cycle: 0

Station Type Date Time Source
KABQ TAF 2018/12/10 18:42 UTC NOAA

TAF KABQ 101739Z 1018/1118 32006KT P6SM BKN200
FM102200 17006KT P6SM BKN200
FM110200 10006KT P6SM SCT120
FM111100 36005KT P6SM SCT120


Example: see airport list